sensor_id;sensor_type;location;lat;lon;timestamp;P1;durP1;ratioP1;P2;durP2;ratioP2
55776;SDS011;54079;44.540;18.784;2023-04-03T00:01:37;5.38;;;4.18;;
55776;SDS011;54079;44.540;18.784;2023-04-03T00:04:04;4.45;;;4.03;;
55776;SDS011;54079;44.540;18.784;2023-04-03T00:06:31;5.47;;;4.25;;
55776;SDS011;54079;44.540;18.784;2023-04-03T00:08:57;10.07;;;6.53;;
55776;SDS011;54079;44.540;18.784;2023-04-03T00:11:23;5.85;;;4.65;;
55776;SDS011;54079;44.540;18.784;2023-04-03T00:13:50;4.30;;;3.67;;
55776;SDS011;54079;44.540;18.784;2023-04-03T00:16:16;4.28;;;3.88;;
55776;SDS011;54079;44.540;18.784;2023-04-03T00:18:43;4.57;;;4.15;;
55776;SDS011;54079;44.540;18.784;2023-04-03T00:21:09;4.75;;;4.35;;
55776;SDS011;54079;44.540;18.784;2023-04-03T00:23:37;5.60;;;5.10;;
55776;SDS011;54079;44.540;18.784;2023-04-03T00:26:03;5.13;;;4.53;;
55776;SDS011;54079;44.540;18.784;2023-04-03T00:28:29;5.65;;;5.22;;
55776;SDS011;54079;44.540;18.784;2023-04-03T00:30:55;5.15;;;4.65;;
55776;SDS011;54079;44.540;18.784;2023-04-03T00:33:21;5.65;;;5.15;;
55776;SDS011;54079;44.540;18.784;2023-04-03T00:35:49;6.80;;;5.57;;
55776;SDS011;54079;44.540;18.784;2023-04-03T00:38:15;5.80;;;5.30;;
55776;SDS011;54079;44.540;18.784;2023-04-03T00:40:42;7.15;;;6.45;;
55776;SDS011;54079;44.540;18.784;2023-04-03T00:45:44;6.80;;;6.05;;
55776;SDS011;54079;44.540;18.784;2023-04-03T00:48:21;8.97;;;6.70;;
55776;SDS011;54079;44.540;18.784;2023-04-03T00:50:51;8.02;;;7.22;;
55776;SDS011;54079;44.540;18.784;2023-04-03T00:53:19;8.10;;;6.80;;
55776;SDS011;54079;44.540;18.784;2023-04-03T00:55:51;7.45;;;6.53;;
55776;SDS011;54079;44.540;18.784;2023-04-03T00:58:19;9.48;;;6.93;;
55776;SDS011;54079;44.540;18.784;2023-04-03T01:00:51;10.05;;;7.57;;
55776;SDS011;54079;44.540;18.784;2023-04-03T01:03:22;7.25;;;6.55;;
55776;SDS011;54079;44.540;18.784;2023-04-03T01:05:48;7.68;;;5.88;;
55776;SDS011;54079;44.540;18.784;2023-04-03T01:08:15;6.78;;;6.15;;
55776;SDS011;54079;44.540;18.784;2023-04-03T01:10:41;8.93;;;7.55;;
55776;SDS011;54079;44.540;18.784;2023-04-03T01:16:04;8.93;;;7.13;;
55776;SDS011;54079;44.540;18.784;2023-04-03T01:18:31;7.47;;;6.82;;
55776;SDS011;54079;44.540;18.784;2023-04-03T01:26:40;7.18;;;6.47;;
55776;SDS011;54079;44.540;18.784;2023-04-03T01:29:06;7.05;;;6.35;;
55776;SDS011;54079;44.540;18.784;2023-04-03T01:34:08;7.13;;;6.43;;
55776;SDS011;54079;44.540;18.784;2023-04-03T01:36:35;7.43;;;5.93;;
55776;SDS011;54079;44.540;18.784;2023-04-03T01:39:00;6.97;;;6.28;;
55776;SDS011;54079;44.540;18.784;2023-04-03T01:41:27;7.03;;;6.43;;
55776;SDS011;54079;44.540;18.784;2023-04-03T01:43:53;7.63;;;6.18;;
55776;SDS011;54079;44.540;18.784;2023-04-03T01:46:19;7.50;;;6.68;;
55776;SDS011;54079;44.540;18.784;2023-04-03T01:48:46;5.68;;;5.18;;
55776;SDS011;54079;44.540;18.784;2023-04-03T01:51:12;6.82;;;6.15;;
55776;SDS011;54079;44.540;18.784;2023-04-03T01:53:38;7.68;;;6.05;;
55776;SDS011;54079;44.540;18.784;2023-04-03T01:56:04;6.55;;;5.95;;
55776;SDS011;54079;44.540;18.784;2023-04-03T01:58:30;7.18;;;6.43;;
55776;SDS011;54079;44.540;18.784;2023-04-03T02:00:56;7.10;;;6.18;;
55776;SDS011;54079;44.540;18.784;2023-04-03T02:03:22;5.70;;;5.10;;
55776;SDS011;54079;44.540;18.784;2023-04-03T02:05:49;7.95;;;7.15;;
55776;SDS011;54079;44.540;18.784;2023-04-03T02:08:15;6.80;;;6.20;;
55776;SDS011;54079;44.540;18.784;2023-04-03T02:10:43;6.40;;;5.60;;
55776;SDS011;54079;44.540;18.784;2023-04-03T02:13:11;7.32;;;6.53;;
55776;SDS011;54079;44.540;18.784;2023-04-03T02:15:38;8.57;;;6.38;;
55776;SDS011;54079;44.540;18.784;2023-04-03T02:18:04;7.68;;;6.40;;
55776;SDS011;54079;44.540;18.784;2023-04-03T02:20:31;7.97;;;6.65;;
55776;SDS011;54079;44.540;18.784;2023-04-03T02:22:57;6.78;;;6.15;;
55776;SDS011;54079;44.540;18.784;2023-04-03T02:25:23;6.22;;;5.63;;
55776;SDS011;54079;44.540;18.784;2023-04-03T02:27:49;5.78;;;5.18;;
55776;SDS011;54079;44.540;18.784;2023-04-03T02:30:15;6.95;;;6.25;;
55776;SDS011;54079;44.540;18.784;2023-04-03T02:32:41;6.50;;;5.88;;
55776;SDS011;54079;44.540;18.784;2023-04-03T02:35:08;7.35;;;5.63;;
55776;SDS011;54079;44.540;18.784;2023-04-03T02:37:35;6.97;;;6.07;;
55776;SDS011;54079;44.540;18.784;2023-04-03T02:40:01;6.15;;;5.55;;
55776;SDS011;54079;44.540;18.784;2023-04-03T02:42:28;6.93;;;5.65;;
55776;SDS011;54079;44.540;18.784;2023-04-03T02:44:54;6.47;;;5.78;;
55776;SDS011;54079;44.540;18.784;2023-04-03T02:47:20;9.32;;;6.93;;
55776;SDS011;54079;44.540;18.784;2023-04-03T02:49:46;7.00;;;5.88;;
55776;SDS011;54079;44.540;18.784;2023-04-03T02:52:13;8.48;;;6.22;;
55776;SDS011;54079;44.540;18.784;2023-04-03T02:54:39;7.22;;;6.05;;
55776;SDS011;54079;44.540;18.784;2023-04-03T02:57:06;7.13;;;6.15;;
55776;SDS011;54079;44.540;18.784;2023-04-03T02:59:34;6.60;;;6.00;;
55776;SDS011;54079;44.540;18.784;2023-04-03T03:02:09;8.75;;;6.70;;
55776;SDS011;54079;44.540;18.784;2023-04-03T03:04:36;7.97;;;6.03;;
55776;SDS011;54079;44.540;18.784;2023-04-03T03:07:02;7.40;;;6.55;;
55776;SDS011;54079;44.540;18.784;2023-04-03T03:09:28;7.47;;;6.57;;
55776;SDS011;54079;44.540;18.784;2023-04-03T03:11:55;8.02;;;6.68;;
55776;SDS011;54079;44.540;18.784;2023-04-03T03:14:21;8.00;;;6.28;;
55776;SDS011;54079;44.540;18.784;2023-04-03T03:16:47;6.85;;;6.10;;
55776;SDS011;54079;44.540;18.784;2023-04-03T03:19:13;6.65;;;5.97;;
55776;SDS011;54079;44.540;18.784;2023-04-03T03:21:39;6.57;;;5.70;;
55776;SDS011;54079;44.540;18.784;2023-04-03T03:24:05;6.22;;;5.60;;
55776;SDS011;54079;44.540;18.784;2023-04-03T03:26:32;6.13;;;5.53;;
55776;SDS011;54079;44.540;18.784;2023-04-03T03:28:58;7.03;;;6.32;;
55776;SDS011;54079;44.540;18.784;2023-04-03T03:31:23;7.50;;;6.70;;
55776;SDS011;54079;44.540;18.784;2023-04-03T03:33:51;8.52;;;6.72;;
55776;SDS011;54079;44.540;18.784;2023-04-03T03:36:17;9.80;;;7.32;;
55776;SDS011;54079;44.540;18.784;2023-04-03T03:38:43;7.78;;;6.90;;
55776;SDS011;54079;44.540;18.784;2023-04-03T03:41:09;9.50;;;7.45;;
55776;SDS011;54079;44.540;18.784;2023-04-03T03:43:35;9.57;;;7.53;;
55776;SDS011;54079;44.540;18.784;2023-04-03T03:46:01;6.85;;;6.10;;
55776;SDS011;54079;44.540;18.784;2023-04-03T03:48:27;7.20;;;6.22;;
55776;SDS011;54079;44.540;18.784;2023-04-03T03:50:53;7.68;;;6.03;;
55776;SDS011;54079;44.540;18.784;2023-04-03T03:53:19;8.30;;;7.28;;
55776;SDS011;54079;44.540;18.784;2023-04-03T03:55:45;8.82;;;6.28;;
55776;SDS011;54079;44.540;18.784;2023-04-03T03:58:11;7.78;;;6.28;;
55776;SDS011;54079;44.540;18.784;2023-04-03T04:00:37;8.57;;;7.25;;
55776;SDS011;54079;44.540;18.784;2023-04-03T04:03:03;5.95;;;5.30;;
55776;SDS011;54079;44.540;18.784;2023-04-03T04:05:28;5.10;;;4.13;;
55776;SDS011;54079;44.540;18.784;2023-04-03T04:07:55;7.45;;;6.55;;
55776;SDS011;54079;44.540;18.784;2023-04-03T04:10:21;5.93;;;5.25;;
55776;SDS011;54079;44.540;18.784;2023-04-03T04:12:47;9.35;;;6.72;;
55776;SDS011;54079;44.540;18.784;2023-04-03T04:15:14;7.57;;;5.00;;
55776;SDS011;54079;44.540;18.784;2023-04-03T05:03:21;9.32;;;7.63;;
55776;SDS011;54079;44.540;18.784;2023-04-03T05:05:47;11.23;;;7.95;;
55776;SDS011;54079;44.540;18.784;2023-04-03T05:08:13;10.90;;;7.32;;
55776;SDS011;54079;44.540;18.784;2023-04-03T05:10:39;10.93;;;8.60;;
55776;SDS011;54079;44.540;18.784;2023-04-03T05:13:06;8.70;;;7.78;;
55776;SDS011;54079;44.540;18.784;2023-04-03T05:15:32;11.18;;;8.65;;
55776;SDS011;54079;44.540;18.784;2023-04-03T05:17:58;8.50;;;7.20;;
55776;SDS011;54079;44.540;18.784;2023-04-03T05:20:24;11.73;;;9.55;;
55776;SDS011;54079;44.540;18.784;2023-04-03T05:22:50;11.85;;;9.40;;
55776;SDS011;54079;44.540;18.784;2023-04-03T05:25:16;10.18;;;7.63;;
55776;SDS011;54079;44.540;18.784;2023-04-03T05:27:42;12.25;;;9.65;;
55776;SDS011;54079;44.540;18.784;2023-04-03T05:30:08;10.20;;;7.53;;
55776;SDS011;54079;44.540;18.784;2023-04-03T05:32:34;9.13;;;7.60;;
55776;SDS011;54079;44.540;18.784;2023-04-03T05:35:00;12.90;;;9.32;;
55776;SDS011;54079;44.540;18.784;2023-04-03T05:37:26;12.20;;;8.63;;
55776;SDS011;54079;44.540;18.784;2023-04-03T05:39:52;11.70;;;9.10;;
55776;SDS011;54079;44.540;18.784;2023-04-03T05:42:18;12.63;;;9.95;;
55776;SDS011;54079;44.540;18.784;2023-04-03T05:44:44;12.00;;;8.20;;
55776;SDS011;54079;44.540;18.784;2023-04-03T05:47:12;11.77;;;9.25;;
55776;SDS011;54079;44.540;18.784;2023-04-03T05:49:38;10.80;;;8.60;;
55776;SDS011;54079;44.540;18.784;2023-04-03T05:52:26;16.13;;;11.18;;
55776;SDS011;54079;44.540;18.784;2023-04-03T05:54:54;12.13;;;9.10;;
55776;SDS011;54079;44.540;18.784;2023-04-03T05:57:20;11.52;;;9.63;;
55776;SDS011;54079;44.540;18.784;2023-04-03T05:59:46;9.90;;;8.05;;
55776;SDS011;54079;44.540;18.784;2023-04-03T06:02:14;13.77;;;10.23;;
55776;SDS011;54079;44.540;18.784;2023-04-03T06:04:42;15.13;;;11.60;;
55776;SDS011;54079;44.540;18.784;2023-04-03T06:07:12;12.38;;;10.48;;
55776;SDS011;54079;44.540;18.784;2023-04-03T06:09:41;15.93;;;11.88;;
55776;SDS011;54079;44.540;18.784;2023-04-03T06:12:07;14.48;;;11.45;;
55776;SDS011;54079;44.540;18.784;2023-04-03T06:14:34;13.65;;;10.95;;
55776;SDS011;54079;44.540;18.784;2023-04-03T06:17:00;13.98;;;11.13;;
55776;SDS011;54079;44.540;18.784;2023-04-03T06:19:27;17.88;;;13.02;;
55776;SDS011;54079;44.540;18.784;2023-04-03T06:21:53;15.95;;;11.65;;
55776;SDS011;54079;44.540;18.784;2023-04-03T06:24:20;13.40;;;11.27;;
55776;SDS011;54079;44.540;18.784;2023-04-03T06:26:47;14.60;;;10.77;;
55776;SDS011;54079;44.540;18.784;2023-04-03T06:29:14;13.60;;;10.98;;
55776;SDS011;54079;44.540;18.784;2023-04-03T06:31:40;14.25;;;10.73;;
55776;SDS011;54079;44.540;18.784;2023-04-03T06:34:06;14.60;;;11.15;;
55776;SDS011;54079;44.540;18.784;2023-04-03T06:36:33;14.70;;;10.35;;
55776;SDS011;54079;44.540;18.784;2023-04-03T06:39:00;13.98;;;10.98;;
55776;SDS011;54079;44.540;18.784;2023-04-03T06:41:28;13.25;;;10.65;;
55776;SDS011;54079;44.540;18.784;2023-04-03T06:43:53;12.40;;;9.90;;
55776;SDS011;54079;44.540;18.784;2023-04-03T06:46:21;14.07;;;12.10;;
55776;SDS011;54079;44.540;18.784;2023-04-03T06:48:48;15.70;;;11.27;;
55776;SDS011;54079;44.540;18.784;2023-04-03T06:51:18;15.55;;;11.40;;
55776;SDS011;54079;44.540;18.784;2023-04-03T06:53:56;13.95;;;10.70;;
55776;SDS011;54079;44.540;18.784;2023-04-03T06:56:23;18.33;;;13.40;;
55776;SDS011;54079;44.540;18.784;2023-04-03T06:58:51;11.02;;;9.68;;
55776;SDS011;54079;44.540;18.784;2023-04-03T07:01:19;13.98;;;11.07;;
55776;SDS011;54079;44.540;18.784;2023-04-03T07:03:46;13.25;;;10.38;;
55776;SDS011;54079;44.540;18.784;2023-04-03T07:06:14;10.48;;;9.18;;
55776;SDS011;54079;44.540;18.784;2023-04-03T07:08:41;12.05;;;10.43;;
55776;SDS011;54079;44.540;18.784;2023-04-03T07:11:08;17.33;;;12.65;;
55776;SDS011;54079;44.540;18.784;2023-04-03T07:13:35;12.68;;;11.30;;
55776;SDS011;54079;44.540;18.784;2023-04-03T07:16:02;13.52;;;11.10;;
55776;SDS011;54079;44.540;18.784;2023-04-03T07:18:30;13.05;;;10.40;;
55776;SDS011;54079;44.540;18.784;2023-04-03T07:20:57;12.63;;;9.50;;
55776;SDS011;54079;44.540;18.784;2023-04-03T07:23:24;14.13;;;11.85;;
55776;SDS011;54079;44.540;18.784;2023-04-03T07:25:51;16.20;;;12.95;;
55776;SDS011;54079;44.540;18.784;2023-04-03T07:28:18;13.45;;;10.93;;
55776;SDS011;54079;44.540;18.784;2023-04-03T07:30:45;15.40;;;11.27;;
55776;SDS011;54079;44.540;18.784;2023-04-03T07:33:13;13.68;;;10.60;;
55776;SDS011;54079;44.540;18.784;2023-04-03T07:35:40;11.15;;;9.65;;
55776;SDS011;54079;44.540;18.784;2023-04-03T07:38:06;11.65;;;8.98;;
55776;SDS011;54079;44.540;18.784;2023-04-03T07:40:33;13.48;;;10.98;;
55776;SDS011;54079;44.540;18.784;2023-04-03T07:43:00;10.45;;;9.13;;
55776;SDS011;54079;44.540;18.784;2023-04-03T07:45:26;18.05;;;12.98;;
55776;SDS011;54079;44.540;18.784;2023-04-03T07:47:52;11.48;;;10.07;;
55776;SDS011;54079;44.540;18.784;2023-04-03T07:50:18;11.10;;;8.35;;
55776;SDS011;54079;44.540;18.784;2023-04-03T07:52:44;10.80;;;9.57;;
55776;SDS011;54079;44.540;18.784;2023-04-03T07:55:11;15.40;;;11.55;;
55776;SDS011;54079;44.540;18.784;2023-04-03T07:57:38;11.05;;;8.98;;
55776;SDS011;54079;44.540;18.784;2023-04-03T08:00:04;12.25;;;10.38;;
55776;SDS011;54079;44.540;18.784;2023-04-03T08:02:31;13.18;;;10.65;;
55776;SDS011;54079;44.540;18.784;2023-04-03T08:04:57;10.15;;;9.02;;
55776;SDS011;54079;44.540;18.784;2023-04-03T08:07:24;11.23;;;10.02;;
55776;SDS011;54079;44.540;18.784;2023-04-03T08:09:50;11.75;;;9.38;;
55776;SDS011;54079;44.540;18.784;2023-04-03T08:12:16;10.88;;;9.38;;
55776;SDS011;54079;44.540;18.784;2023-04-03T08:14:42;10.40;;;8.65;;
55776;SDS011;54079;44.540;18.784;2023-04-03T08:17:08;10.77;;;8.85;;
55776;SDS011;54079;44.540;18.784;2023-04-03T08:19:39;7.82;;;7.00;;
55776;SDS011;54079;44.540;18.784;2023-04-03T08:22:06;9.23;;;8.32;;
55776;SDS011;54079;44.540;18.784;2023-04-03T08:24:35;12.80;;;9.43;;
55776;SDS011;54079;44.540;18.784;2023-04-03T08:27:01;9.43;;;7.10;;
55776;SDS011;54079;44.540;18.784;2023-04-03T08:29:27;7.32;;;6.55;;
55776;SDS011;54079;44.540;18.784;2023-04-03T08:31:53;9.90;;;8.10;;
55776;SDS011;54079;44.540;18.784;2023-04-03T08:34:19;10.68;;;7.88;;
55776;SDS011;54079;44.540;18.784;2023-04-03T08:36:45;9.93;;;7.63;;
55776;SDS011;54079;44.540;18.784;2023-04-03T08:39:11;11.32;;;8.93;;
55776;SDS011;54079;44.540;18.784;2023-04-03T08:41:38;7.25;;;5.70;;
55776;SDS011;54079;44.540;18.784;2023-04-03T08:47:12;10.80;;;7.75;;
55776;SDS011;54079;44.540;18.784;2023-04-03T08:50:30;6.95;;;4.82;;
55776;SDS011;54079;44.540;18.784;2023-04-03T08:52:57;9.00;;;6.85;;
55776;SDS011;54079;44.540;18.784;2023-04-03T08:56:07;9.82;;;6.75;;
55776;SDS011;54079;44.540;18.784;2023-04-03T08:58:18;12.02;;;8.18;;
55776;SDS011;54079;44.540;18.784;2023-04-03T09:03:20;8.73;;;6.45;;
55776;SDS011;54079;44.540;18.784;2023-04-03T09:17:17;8.10;;;5.93;;
55776;SDS011;54079;44.540;18.784;2023-04-03T09:19:28;9.90;;;7.63;;
55776;SDS011;54079;44.540;18.784;2023-04-03T09:21:57;10.07;;;7.25;;
55776;SDS011;54079;44.540;18.784;2023-04-03T09:24:39;12.85;;;8.43;;
55776;SDS011;54079;44.540;18.784;2023-04-03T09:27:09;9.85;;;7.38;;
55776;SDS011;54079;44.540;18.784;2023-04-03T09:29:39;7.18;;;4.57;;
55776;SDS011;54079;44.540;18.784;2023-04-03T09:32:33;14.38;;;10.15;;
55776;SDS011;54079;44.540;18.784;2023-04-03T09:35:21;10.13;;;6.25;;
55776;SDS011;54079;44.540;18.784;2023-04-03T09:37:46;10.18;;;6.75;;
55776;SDS011;54079;44.540;18.784;2023-04-03T09:42:52;2.75;;;2.28;;
55776;SDS011;54079;44.540;18.784;2023-04-03T09:45:24;3.45;;;2.65;;
55776;SDS011;54079;44.540;18.784;2023-04-03T09:48:25;9.25;;;6.40;;
55776;SDS011;54079;44.540;18.784;2023-04-03T09:53:26;5.00;;;3.28;;
55776;SDS011;54079;44.540;18.784;2023-04-03T09:55:55;5.22;;;3.55;;
55776;SDS011;54079;44.540;18.784;2023-04-03T09:58:38;4.47;;;2.67;;
55776;SDS011;54079;44.540;18.784;2023-04-03T10:01:30;3.67;;;2.63;;
55776;SDS011;54079;44.540;18.784;2023-04-03T10:04:11;8.63;;;5.18;;
55776;SDS011;54079;44.540;18.784;2023-04-03T10:06:47;2.53;;;1.80;;
55776;SDS011;54079;44.540;18.784;2023-04-03T10:31:08;3.42;;;2.17;;
55776;SDS011;54079;44.540;18.784;2023-04-03T10:33:50;5.97;;;3.55;;
55776;SDS011;54079;44.540;18.784;2023-04-03T10:39:29;6.18;;;4.10;;
55776;SDS011;54079;44.540;18.784;2023-04-03T10:42:13;9.75;;;5.45;;
55776;SDS011;54079;44.540;18.784;2023-04-03T10:47:24;7.80;;;5.13;;
55776;SDS011;54079;44.540;18.784;2023-04-03T10:52:43;3.30;;;2.13;;
55776;SDS011;54079;44.540;18.784;2023-04-03T10:55:35;3.53;;;2.67;;
55776;SDS011;54079;44.540;18.784;2023-04-03T10:58:35;4.63;;;1.67;;
55776;SDS011;54079;44.540;18.784;2023-04-03T11:01:08;4.78;;;3.90;;
55776;SDS011;54079;44.540;18.784;2023-04-03T11:03:43;6.28;;;4.75;;
55776;SDS011;54079;44.540;18.784;2023-04-03T11:06:13;8.10;;;5.22;;
55776;SDS011;54079;44.540;18.784;2023-04-03T11:08:51;7.75;;;4.50;;
55776;SDS011;54079;44.540;18.784;2023-04-03T11:11:35;10.25;;;7.07;;
55776;SDS011;54079;44.540;18.784;2023-04-03T11:17:15;7.55;;;5.78;;
55776;SDS011;54079;44.540;18.784;2023-04-03T11:27:41;8.00;;;6.13;;
55776;SDS011;54079;44.540;18.784;2023-04-03T11:30:56;8.73;;;6.18;;
55776;SDS011;54079;44.540;18.784;2023-04-03T11:36:02;12.88;;;9.30;;
55776;SDS011;54079;44.540;18.784;2023-04-03T11:38:38;13.45;;;9.40;;
55776;SDS011;54079;44.540;18.784;2023-04-03T11:41:09;12.93;;;9.85;;
55776;SDS011;54079;44.540;18.784;2023-04-03T11:43:55;11.65;;;9.70;;
55776;SDS011;54079;44.540;18.784;2023-04-03T11:46:52;12.88;;;8.70;;
55776;SDS011;54079;44.540;18.784;2023-04-03T12:03:56;8.90;;;7.43;;
55776;SDS011;54079;44.540;18.784;2023-04-03T12:09:01;15.40;;;11.30;;
55776;SDS011;54079;44.540;18.784;2023-04-03T12:11:31;13.50;;;10.73;;
55776;SDS011;54079;44.540;18.784;2023-04-03T12:48:31;13.38;;;10.57;;
55776;SDS011;54079;44.540;18.784;2023-04-03T12:51:03;12.68;;;10.20;;
55776;SDS011;54079;44.540;18.784;2023-04-03T12:53:31;12.15;;;9.95;;
55776;SDS011;54079;44.540;18.784;2023-04-03T12:56:23;12.90;;;10.23;;
55776;SDS011;54079;44.540;18.784;2023-04-03T12:58:54;10.48;;;9.10;;
55776;SDS011;54079;44.540;18.784;2023-04-03T13:01:37;14.50;;;10.48;;
55776;SDS011;54079;44.540;18.784;2023-04-03T13:04:03;10.40;;;9.15;;
55776;SDS011;54079;44.540;18.784;2023-04-03T13:06:39;12.23;;;10.95;;
55776;SDS011;54079;44.540;18.784;2023-04-03T13:12:00;11.98;;;10.18;;
55776;SDS011;54079;44.540;18.784;2023-04-03T13:14:29;13.57;;;10.48;;
55776;SDS011;54079;44.540;18.784;2023-04-03T13:16:56;10.50;;;9.40;;
55776;SDS011;54079;44.540;18.784;2023-04-03T13:19:25;13.00;;;9.82;;
55776;SDS011;54079;44.540;18.784;2023-04-03T13:21:55;10.30;;;9.18;;
55776;SDS011;54079;44.540;18.784;2023-04-03T13:24:45;11.35;;;9.63;;
55776;SDS011;54079;44.540;18.784;2023-04-03T13:27:14;11.48;;;9.27;;
55776;SDS011;54079;44.540;18.784;2023-04-03T13:29:40;12.63;;;10.60;;
55776;SDS011;54079;44.540;18.784;2023-04-03T13:32:06;11.70;;;10.48;;
55776;SDS011;54079;44.540;18.784;2023-04-03T13:34:42;14.27;;;11.98;;
55776;SDS011;54079;44.540;18.784;2023-04-03T13:37:31;11.00;;;9.20;;
55776;SDS011;54079;44.540;18.784;2023-04-03T13:42:32;12.52;;;10.75;;
55776;SDS011;54079;44.540;18.784;2023-04-03T13:47:38;11.93;;;10.18;;
55776;SDS011;54079;44.540;18.784;2023-04-03T13:55:22;9.95;;;8.38;;
55776;SDS011;54079;44.540;18.784;2023-04-03T13:57:59;12.80;;;10.57;;
55776;SDS011;54079;44.540;18.784;2023-04-03T14:03:28;13.57;;;11.07;;
55776;SDS011;54079;44.540;18.784;2023-04-03T14:05:56;10.45;;;9.35;;
55776;SDS011;54079;44.540;18.784;2023-04-03T14:08:23;12.63;;;10.82;;
55776;SDS011;54079;44.540;18.784;2023-04-03T14:10:50;11.48;;;10.27;;
55776;SDS011;54079;44.540;18.784;2023-04-03T14:13:17;11.32;;;10.10;;
55776;SDS011;54079;44.540;18.784;2023-04-03T14:15:44;10.45;;;9.40;;
55776;SDS011;54079;44.540;18.784;2023-04-03T14:18:14;11.55;;;9.90;;
55776;SDS011;54079;44.540;18.784;2023-04-03T14:20:42;12.23;;;9.27;;
55776;SDS011;54079;44.540;18.784;2023-04-03T14:23:08;11.18;;;9.55;;
55776;SDS011;54079;44.540;18.784;2023-04-03T14:25:35;11.95;;;10.13;;
55776;SDS011;54079;44.540;18.784;2023-04-03T14:28:06;11.43;;;9.80;;
55776;SDS011;54079;44.540;18.784;2023-04-03T14:30:43;9.93;;;8.73;;
55776;SDS011;54079;44.540;18.784;2023-04-03T14:33:15;11.43;;;9.98;;
55776;SDS011;54079;44.540;18.784;2023-04-03T14:35:43;12.93;;;10.38;;
55776;SDS011;54079;44.540;18.784;2023-04-03T14:38:28;10.45;;;8.88;;
55776;SDS011;54079;44.540;18.784;2023-04-03T14:40:56;8.55;;;7.70;;
55776;SDS011;54079;44.540;18.784;2023-04-03T14:43:22;10.35;;;9.23;;
55776;SDS011;54079;44.540;18.784;2023-04-03T14:45:49;9.98;;;8.98;;
55776;SDS011;54079;44.540;18.784;2023-04-03T14:48:18;11.23;;;9.40;;
55776;SDS011;54079;44.540;18.784;2023-04-03T14:50:49;8.88;;;8.07;;
55776;SDS011;54079;44.540;18.784;2023-04-03T14:53:17;10.43;;;8.80;;
55776;SDS011;54079;44.540;18.784;2023-04-03T14:55:47;10.40;;;8.23;;
55776;SDS011;54079;44.540;18.784;2023-04-03T14:58:15;9.40;;;8.40;;
55776;SDS011;54079;44.540;18.784;2023-04-03T15:00:43;9.32;;;8.38;;
55776;SDS011;54079;44.540;18.784;2023-04-03T15:03:14;9.77;;;8.35;;
55776;SDS011;54079;44.540;18.784;2023-04-03T15:05:45;10.18;;;8.25;;
55776;SDS011;54079;44.540;18.784;2023-04-03T15:08:20;9.18;;;8.07;;
55776;SDS011;54079;44.540;18.784;2023-04-03T15:10:49;8.90;;;8.00;;
55776;SDS011;54079;44.540;18.784;2023-04-03T15:13:17;9.23;;;8.30;;
55776;SDS011;54079;44.540;18.784;2023-04-03T15:15:45;8.65;;;7.80;;
55776;SDS011;54079;44.540;18.784;2023-04-03T15:18:17;10.98;;;9.85;;
55776;SDS011;54079;44.540;18.784;2023-04-03T15:20:45;11.50;;;8.60;;
55776;SDS011;54079;44.540;18.784;2023-04-03T15:23:12;8.02;;;7.22;;
55776;SDS011;54079;44.540;18.784;2023-04-03T15:25:41;9.45;;;8.10;;
55776;SDS011;54079;44.540;18.784;2023-04-03T15:28:09;10.23;;;9.00;;
55776;SDS011;54079;44.540;18.784;2023-04-03T15:30:42;8.63;;;7.78;;
55776;SDS011;54079;44.540;18.784;2023-04-03T15:33:08;9.88;;;7.63;;
55776;SDS011;54079;44.540;18.784;2023-04-03T15:35:34;12.57;;;10.30;;
55776;SDS011;54079;44.540;18.784;2023-04-03T15:38:00;12.90;;;10.32;;
55776;SDS011;54079;44.540;18.784;2023-04-03T15:40:26;9.00;;;8.10;;
55776;SDS011;54079;44.540;18.784;2023-04-03T15:42:52;9.05;;;8.15;;
55776;SDS011;54079;44.540;18.784;2023-04-03T15:45:18;11.32;;;8.65;;
55776;SDS011;54079;44.540;18.784;2023-04-03T15:47:44;10.50;;;8.75;;
55776;SDS011;54079;44.540;18.784;2023-04-03T15:50:10;9.48;;;8.43;;
55776;SDS011;54079;44.540;18.784;2023-04-03T15:52:36;9.25;;;8.35;;
55776;SDS011;54079;44.540;18.784;2023-04-03T15:55:02;10.02;;;8.80;;
55776;SDS011;54079;44.540;18.784;2023-04-03T15:57:29;9.05;;;7.88;;
55776;SDS011;54079;44.540;18.784;2023-04-03T15:59:55;9.88;;;8.48;;
55776;SDS011;54079;44.540;18.784;2023-04-03T16:02:21;11.40;;;9.40;;
55776;SDS011;54079;44.540;18.784;2023-04-03T16:04:47;9.43;;;8.25;;
55776;SDS011;54079;44.540;18.784;2023-04-03T16:07:14;11.45;;;9.60;;
55776;SDS011;54079;44.540;18.784;2023-04-03T16:09:40;7.47;;;6.68;;
55776;SDS011;54079;44.540;18.784;2023-04-03T16:12:06;10.68;;;9.38;;
55776;SDS011;54079;44.540;18.784;2023-04-03T16:14:32;8.52;;;7.70;;
55776;SDS011;54079;44.540;18.784;2023-04-03T16:16:58;9.93;;;8.32;;
55776;SDS011;54079;44.540;18.784;2023-04-03T16:19:25;10.00;;;8.10;;
55776;SDS011;54079;44.540;18.784;2023-04-03T16:21:51;10.32;;;8.80;;
55776;SDS011;54079;44.540;18.784;2023-04-03T16:24:19;11.63;;;8.27;;
55776;SDS011;54079;44.540;18.784;2023-04-03T16:26:45;9.07;;;8.10;;
55776;SDS011;54079;44.540;18.784;2023-04-03T16:29:11;11.45;;;9.23;;
55776;SDS011;54079;44.540;18.784;2023-04-03T16:31:37;12.32;;;10.35;;
55776;SDS011;54079;44.540;18.784;2023-04-03T16:34:03;9.48;;;8.48;;
55776;SDS011;54079;44.540;18.784;2023-04-03T16:36:29;10.43;;;7.90;;
55776;SDS011;54079;44.540;18.784;2023-04-03T16:38:55;8.80;;;7.38;;
55776;SDS011;54079;44.540;18.784;2023-04-03T16:41:21;9.02;;;7.47;;
55776;SDS011;54079;44.540;18.784;2023-04-03T16:43:47;8.27;;;7.45;;
55776;SDS011;54079;44.540;18.784;2023-04-03T16:46:13;10.25;;;9.15;;
55776;SDS011;54079;44.540;18.784;2023-04-03T16:48:42;11.27;;;8.77;;
55776;SDS011;54079;44.540;18.784;2023-04-03T16:51:08;8.73;;;7.72;;
55776;SDS011;54079;44.540;18.784;2023-04-03T16:53:33;9.48;;;8.48;;
55776;SDS011;54079;44.540;18.784;2023-04-03T16:56:00;8.07;;;7.22;;
55776;SDS011;54079;44.540;18.784;2023-04-03T16:58:26;7.57;;;6.53;;
55776;SDS011;54079;44.540;18.784;2023-04-03T17:00:52;10.18;;;8.90;;
55776;SDS011;54079;44.540;18.784;2023-04-03T17:03:18;7.50;;;6.78;;
55776;SDS011;54079;44.540;18.784;2023-04-03T17:05:47;8.48;;;7.60;;
55776;SDS011;54079;44.540;18.784;2023-04-03T17:08:15;9.15;;;7.85;;
55776;SDS011;54079;44.540;18.784;2023-04-03T17:10:42;9.43;;;7.90;;
55776;SDS011;54079;44.540;18.784;2023-04-03T17:13:08;9.68;;;8.70;;
55776;SDS011;54079;44.540;18.784;2023-04-03T17:15:34;8.60;;;7.72;;
55776;SDS011;54079;44.540;18.784;2023-04-03T17:18:00;8.68;;;6.95;;
55776;SDS011;54079;44.540;18.784;2023-04-03T17:20:26;9.48;;;8.48;;
55776;SDS011;54079;44.540;18.784;2023-04-03T17:22:52;7.78;;;6.97;;
55776;SDS011;54079;44.540;18.784;2023-04-03T17:25:18;8.43;;;7.47;;
55776;SDS011;54079;44.540;18.784;2023-04-03T17:27:45;9.88;;;8.18;;
55776;SDS011;54079;44.540;18.784;2023-04-03T17:30:11;8.52;;;7.63;;
55776;SDS011;54079;44.540;18.784;2023-04-03T17:32:37;10.93;;;8.20;;
55776;SDS011;54079;44.540;18.784;2023-04-03T17:35:03;8.77;;;7.90;;
55776;SDS011;54079;44.540;18.784;2023-04-03T17:37:29;8.80;;;7.90;;
55776;SDS011;54079;44.540;18.784;2023-04-03T17:39:55;8.32;;;7.47;;
55776;SDS011;54079;44.540;18.784;2023-04-03T17:42:21;8.88;;;7.25;;
55776;SDS011;54079;44.540;18.784;2023-04-03T17:44:47;7.75;;;6.95;;
55776;SDS011;54079;44.540;18.784;2023-04-03T17:47:12;10.40;;;8.35;;
55776;SDS011;54079;44.540;18.784;2023-04-03T17:49:38;8.18;;;6.63;;